Time;durP1;ratioP1;P1;durP2;ratioP2;P2;SDS_P1;SDS_P2;PMS_P1;PMS_P2;Temp;Humidity;BMP_temperature;BMP_pressure;BME280_temperature;BME280_humidity;BME280_pressure;Samples;Min_cycle;Max_cycle;Signal;HPM_P1;HPM_P2
2021/11/16 00:00:43;;;;;;;38.08;22.45;;;;;;;4.59;100.00;93988.22;5047986;28;20045;-82
2021/11/16 00:03:11;;;;;;;40.70;23.27;;;;;;;4.94;100.00;94032.25;5047657;28;20535;-82
2021/11/16 00:05:40;;;;;;;40.80;23.90;;;;;;;4.75;100.00;93999.41;5047689;28;20052;-82
2021/11/16 00:08:07;;;;;;;40.97;23.80;;;;;;;4.97;100.00;94025.25;5047989;28;20052;-82
2021/11/16 00:10:35;;;;;;;38.67;23.80;;;;;;;5.04;100.00;94018.56;5047999;28;20408;-82
2021/11/16 00:13:04;;;;;;;42.60;24.15;;;;;;;5.14;100.00;94031.97;5047762;28;20148;-82
2021/11/16 00:15:31;;;;;;;36.78;23.90;;;;;;;4.98;100.00;94002.19;5047609;28;20132;-81
2021/11/16 00:17:58;;;;;;;38.15;24.13;;;;;;;5.13;100.00;94025.28;5047390;28;20057;-81
2021/11/16 00:20:25;;;;;;;39.75;23.88;;;;;;;4.96;100.00;93999.00;5047508;28;20064;-82
2021/11/16 00:22:53;;;;;;;28.88;18.50;;;;;;;5.14;100.00;94024.34;5047451;28;20051;-81
2021/11/16 00:25:30;;;;;;;30.10;19.73;;;;;;;5.16;100.00;94037.72;5047551;28;20051;-82
2021/11/16 00:27:57;;;;;;;35.45;21.25;;;;;;;5.17;100.00;94024.03;5047552;28;20060;-82
2021/11/16 00:30:23;;;;;;;33.85;21.40;;;;;;;5.05;100.00;94007.47;5047657;28;20049;-81
2021/11/16 00:32:50;;;;;;;29.63;18.95;;;;;;;5.21;100.00;94025.31;5047578;28;20044;-81
2021/11/16 00:35:17;;;;;;;29.52;19.02;;;;;;;5.20;100.00;94021.16;5047512;28;20087;-82
2021/11/16 00:37:44;;;;;;;31.02;18.67;;;;;;;5.26;100.00;94018.94;5047479;28;20053;-81
2021/11/16 00:40:17;;;;;;;29.10;18.75;;;;;;;5.24;100.00;94021.66;5046742;28;20045;-82
2021/11/16 00:42:45;;;;;;;31.88;18.48;;;;;;;5.08;100.00;93994.41;5046817;28;20049;-82
2021/11/16 00:45:13;;;;;;;30.67;18.80;;;;;;;5.16;100.00;94009.72;5047377;28;20041;-82
2021/11/16 00:47:40;;;;;;;27.30;18.33;;;;;;;5.30;100.00;94020.22;5046719;28;20489;-82
2021/11/16 00:50:09;;;;;;;32.92;19.05;;;;;;;5.17;100.00;94011.31;5047233;28;20411;-82
2021/11/16 00:52:36;;;;;;;31.80;18.90;;;;;;;5.28;100.00;94022.94;5046953;28;20591;-82
2021/11/16 00:55:04;;;;;;;27.88;17.17;;;;;;;5.31;100.00;94027.72;5047050;28;20254;-81
2021/11/16 00:57:32;;;;;;;26.85;16.65;;;;;;;5.26;100.00;94014.66;5046988;28;20048;-81
2021/11/16 00:59:59;;;;;;;26.92;15.95;;;;;;;5.30;100.00;94018.50;5046792;28;20053;-81
2021/11/16 01:02:26;;;;;;;22.40;14.35;;;;;;;5.18;100.00;94002.69;5046057;28;20075;-82
2021/11/16 01:04:53;;;;;;;19.80;12.30;;;;;;;5.00;100.00;93990.09;5046358;28;20151;-82
2021/11/16 01:07:21;;;;;;;19.00;12.40;;;;;;;4.97;100.00;94003.16;5046852;28;20049;-81
2021/11/16 01:09:48;;;;;;;21.10;14.00;;;;;;;4.67;100.00;93982.34;5046394;28;20053;-82
2021/11/16 01:12:15;;;;;;;;;;;;;;;4.59;100.00;94020.50;4395725;28;10001069;-81
2021/11/16 01:14:43;;;;;;;27.45;15.48;;;;;;;4.56;100.00;93998.69;5060844;28;20074;-82
2021/11/16 01:17:10;;;;;;;21.08;14.18;;;;;;;4.76;100.00;94022.16;5066009;28;20385;-81
2021/11/16 01:19:38;;;;;;;21.85;14.20;;;;;;;4.88;100.00;94021.88;5066204;28;20041;-82
2021/11/16 01:22:05;;;;;;;30.88;18.02;;;;;;;4.95;100.00;94022.84;5066471;28;20056;-81
2021/11/16 01:24:32;;;;;;;25.52;16.23;;;;;;;4.81;100.00;93989.41;5066564;28;20055;-81
2021/11/16 01:26:59;;;;;;;24.25;15.27;;;;;;;4.82;100.00;93991.00;5037676;28;20052;-80
2021/11/16 01:29:26;;;;;;;22.98;15.80;;;;;;;4.70;100.00;93999.88;5057521;28;20411;-81
2021/11/16 01:31:56;;;;;;;21.92;14.93;;;;;;;4.51;100.00;93998.34;5055906;28;20547;-81
2021/11/16 01:34:27;;;;;;;20.90;14.40;;;;;;;4.37;100.00;93999.72;5056312;28;20049;-81
2021/11/16 01:36:54;;;;;;;19.02;13.50;;;;;;;4.40;100.00;93991.81;5056532;28;20068;-81
2021/11/16 01:39:21;;;;;;;18.50;13.63;;;;;;;3.88;100.00;93965.44;5056080;28;20040;-81
2021/11/16 01:41:48;;;;;;;20.48;13.20;;;;;;;3.93;100.00;94000.59;5056188;28;20140;-81
2021/11/16 01:44:15;;;;;;;18.10;12.60;;;;;;;4.03;100.00;94008.91;5056039;28;20055;-81
2021/11/16 01:46:42;;;;;;;18.58;12.43;;;;;;;3.82;100.00;93979.56;5055793;28;20102;-81
2021/11/16 01:49:10;;;;;;;17.58;12.75;;;;;;;3.87;100.00;93991.81;5056266;28;20055;-81
2021/11/16 01:51:39;;;;;;;18.67;14.40;;;;;;;3.80;100.00;93976.34;5056341;28;20056;-81
2021/11/16 01:54:07;;;;;;;19.58;14.73;;;;;;;3.84;100.00;93964.16;5056079;28;20049;-83
2021/11/16 01:56:36;;;;;;;18.90;12.70;;;;;;;4.16;100.00;94005.97;5055388;28;20534;-81
2021/11/16 01:59:04;;;;;;;21.35;14.20;;;;;;;4.07;100.00;94000.03;5055776;28;20045;-82
2021/11/16 02:01:32;;;;;;;21.80;14.43;;;;;;;3.97;100.00;93977.25;5055640;28;20040;-83
2021/11/16 02:03:59;;;;;;;22.88;13.88;;;;;;;4.12;100.00;93964.78;5055539;28;20063;-83
2021/11/16 02:06:30;;;;;;;19.75;13.73;;;;;;;4.36;100.00;93977.78;5055667;28;20049;-83
2021/11/16 02:08:59;;;;;;;18.30;13.63;;;;;;;4.34;100.00;93962.66;5055892;28;20108;-83
2021/11/16 02:11:27;;;;;;;18.42;13.73;;;;;;;4.49;100.00;93995.19;5056020;28;20045;-82
2021/11/16 02:13:54;;;;;;;21.90;16.00;;;;;;;4.45;100.00;93974.34;5054391;28;20052;-82
2021/11/16 02:16:22;;;;;;;22.65;14.90;;;;;;;4.33;100.00;93960.28;5055994;28;20740;-82
2021/11/16 02:18:49;;;;;;;20.75;13.95;;;;;;;4.32;100.00;93954.41;5055516;28;20487;-82
2021/11/16 02:21:18;;;;;;;22.60;14.98;;;;;;;4.32;100.00;93946.78;5055641;28;20115;-83
2021/11/16 02:23:44;;;;;;;23.95;15.45;;;;;;;4.62;100.00;93994.72;5055163;28;20064;-82
2021/11/16 02:26:13;;;;;;;28.13;18.23;;;;;;;4.59;100.00;93988.22;5055394;28;20040;-81
2021/11/16 02:28:43;;;;;;;30.80;18.83;;;;;;;4.67;100.00;93982.34;5055494;28;20040;-81
2021/11/16 02:31:10;;;;;;;27.63;17.52;;;;;;;4.67;100.00;93964.53;5055084;28;20147;-81
2021/11/16 02:33:37;;;;;;;30.13;18.98;;;;;;;4.80;100.00;93977.63;5055102;28;20528;-81
2021/11/16 02:36:04;;;;;;;30.00;19.25;;;;;;;4.87;100.00;93969.38;5055591;28;20056;-81
2021/11/16 02:38:33;;;;;;;28.52;18.38;;;;;;;4.92;100.00;93967.16;5055414;28;20064;-81
2021/11/16 02:41:01;;;;;;;24.38;16.13;;;;;;;4.95;100.00;93970.19;5055887;28;20867;-81
2021/11/16 02:43:29;;;;;;;26.92;17.90;;;;;;;5.03;100.00;93968.59;5055189;28;20052;-81
2021/11/16 02:45:56;;;;;;;27.80;17.67;;;;;;;4.96;100.00;93948.09;5055265;28;20048;-81
2021/11/16 02:48:25;;;;;;;25.52;16.90;;;;;;;5.19;100.00;93972.94;5055239;28;20048;-81
2021/11/16 02:50:57;;;;;;;27.58;17.27;;;;;;;4.92;100.00;93926.44;5055325;28;20049;-81
2021/11/16 02:53:24;;;;;;;27.95;17.63;;;;;;;5.33;100.00;93964.66;5055378;28;20043;-81
2021/11/16 02:55:53;;;;;;;29.23;17.92;;;;;;;5.35;100.00;93967.06;5054482;28;20056;-81
2021/11/16 02:58:22;;;;;;;28.45;17.40;;;;;;;5.20;100.00;93937.09;5054695;28;20507;-81
2021/11/16 03:00:53;;;;;;;26.73;17.60;;;;;;;5.37;100.00;93962.59;5054823;28;20122;-82
2021/11/16 03:03:20;;;;;;;26.42;17.35;;;;;;;5.40;100.00;93964.03;5055155;28;20074;-82
2021/11/16 03:05:48;;;;;;;28.42;16.65;;;;;;;5.40;100.00;93976.78;5054877;28;20048;-82
2021/11/16 03:08:20;;;;;;;26.67;17.10;;;;;;;5.41;100.00;93978.38;5054980;28;20065;-81
2021/11/16 03:10:48;;;;;;;26.20;16.10;;;;;;;5.40;100.00;93971.69;5054679;28;20049;-81
2021/11/16 03:13:17;;;;;;;25.65;16.48;;;;;;;5.18;100.00;93935.66;5054892;28;20048;-81
2021/11/16 03:15:44;;;;;;;26.17;16.92;;;;;;;5.30;100.00;93959.09;5054162;28;20048;-81
2021/11/16 03:18:11;;;;;;;25.92;17.15;;;;;;;5.29;100.00;93960.06;5054441;28;20060;-81
2021/11/16 03:20:38;;;;;;;27.67;16.60;;;;;;;5.31;100.00;93965.78;5055171;28;20139;-81
2021/11/16 03:23:12;;;;;;;29.25;17.48;;;;;;;5.02;100.00;93939.81;5054547;28;20070;-82
2021/11/16 03:25:43;;;;;;;24.50;16.45;;;;;;;5.22;100.00;93959.88;5055901;28;20055;-81
2021/11/16 03:28:11;;;;;;;31.70;18.75;;;;;;;5.14;100.00;93957.34;5058419;28;20510;-82
2021/11/16 03:30:41;;;;;;;33.05;19.60;;;;;;;5.01;100.00;93947.59;5058575;28;20045;-81
2021/11/16 03:33:08;;;;;;;29.75;17.60;;;;;;;5.15;100.00;93977.56;5058225;28;20048;-82
2021/11/16 03:35:36;;;;;;;28.80;18.27;;;;;;;5.20;100.00;93969.44;5058896;28;20056;-81
2021/11/16 03:38:04;;;;;;;34.88;21.55;;;;;;;5.14;100.00;93968.31;5058322;28;20049;-81
2021/11/16 03:40:35;;;;;;;26.17;17.48;;;;;;;4.82;100.00;93931.66;5058139;28;20060;-81
2021/11/16 03:43:04;;;;;;;27.13;17.17;;;;;;;5.02;100.00;93967.03;5058066;28;20059;-81
2021/11/16 03:45:31;;;;;;;42.78;25.42;;;;;;;5.04;100.00;93970.19;5058490;28;20060;-81
2021/11/16 03:48:00;;;;;;;34.40;21.05;;;;;;;5.04;100.00;93972.75;5058558;28;20041;-81
2021/11/16 03:50:30;;;;;;;27.05;18.23;;;;;;;4.93;100.00;93954.28;5058847;28;20044;-82
2021/11/16 03:52:58;;;;;;;26.27;16.92;;;;;;;4.89;100.00;93944.56;5058093;28;20488;-82
2021/11/16 03:55:28;;;;;;;27.65;17.92;;;;;;;5.00;100.00;93966.38;5058861;28;20064;-82
2021/11/16 03:57:56;;;;;;;25.30;16.63;;;;;;;4.97;100.00;93942.03;5059182;28;20048;-81
2021/11/16 04:00:25;;;;;;;28.60;17.60;;;;;;;5.16;100.00;93963.88;5058382;28;20036;-81
2021/11/16 04:02:53;;;;;;;27.67;17.45;;;;;;;5.15;100.00;93959.75;5058029;28;20060;-81
2021/11/16 04:05:21;;;;;;;28.70;18.25;;;;;;;5.08;100.00;93946.81;5058139;28;20036;-81
2021/11/16 04:07:48;;;;;;;30.17;17.25;;;;;;;5.15;100.00;93957.19;5057845;28;20044;-81
2021/11/16 04:10:15;;;;;;;21.88;14.93;;;;;;;4.79;100.00;93904.78;5057837;28;20164;-81
2021/11/16 04:12:44;;;;;;;24.67;16.63;;;;;;;4.75;100.00;93946.75;5057611;28;20501;-82
2021/11/16 04:15:12;;;;;;;25.65;16.50;;;;;;;4.49;100.00;93901.81;5057781;28;20045;-82
2021/11/16 04:17:41;;;;;;;23.67;15.13;;;;;;;4.55;100.00;93926.66;5057631;28;20056;-81
2021/11/16 04:20:12;;;;;;;24.92;15.02;;;;;;;4.83;100.00;93963.81;5057963;28;20103;-81
2021/11/16 04:22:40;;;;;;;22.40;13.50;;;;;;;4.79;100.00;93959.97;5057192;28;20048;-81
2021/11/16 04:25:08;;;;;;;25.67;16.80;;;;;;;4.75;100.00;93961.22;5057426;28;20048;-81
2021/11/16 04:27:35;;;;;;;23.27;15.27;;;;;;;4.64;100.00;93962.31;5058026;28;20057;-81
2021/11/16 04:30:02;;;;;;;22.48;14.23;;;;;;;4.56;100.00;93970.72;5057144;28;20049;-82
2021/11/16 04:32:29;;;;;;;25.63;15.30;;;;;;;4.61;100.00;93971.06;5057584;28;20126;-81
2021/11/16 04:34:55;;;;;;;22.90;13.70;;;;;;;4.23;100.00;93961.22;5057314;28;20056;-81
2021/11/16 04:37:22;;;;;;;22.85;14.23;;;;;;;4.18;100.00;93965.13;5056503;28;20040;-81
2021/11/16 04:39:51;;;;;;;21.63;13.82;;;;;;;3.88;100.00;93937.47;5057293;28;20491;-81
2021/11/16 04:42:18;;;;;;;20.70;13.93;;;;;;;3.84;100.00;93954.78;5057184;28;20071;-81
2021/11/16 04:44:46;;;;;;;22.13;14.18;;;;;;;3.94;100.00;93939.41;5056676;28;20041;-81
2021/11/16 04:47:18;;;;;;;24.85;15.82;;;;;;;4.00;100.00;93938.03;5056810;28;20045;-81
2021/11/16 04:49:48;;;;;;;25.15;16.25;;;;;;;4.08;100.00;93945.69;5056992;28;20053;-81
2021/11/16 04:52:21;;;;;;;23.45;14.55;;;;;;;4.32;100.00;93967.13;5056858;28;20049;-81
2021/11/16 05:03:02;;;;;;;27.85;18.45;;;;;;;4.43;100.00;93948.25;5056891;28;19935;-80
2021/11/16 05:05:28;;;;;;;33.45;20.58;;;;;;;4.55;100.00;93967.34;5056573;28;20060;-80
2021/11/16 05:07:59;;;;;;;34.88;21.90;;;;;;;4.41;100.00;93945.06;5057121;28;20047;-80
2021/11/16 05:10:26;;;;;;;36.28;22.98;;;;;;;4.64;100.00;93969.94;5056797;28;20408;-80
2021/11/16 05:12:56;;;;;;;32.88;21.33;;;;;;;4.66;100.00;93978.22;5056478;28;20045;-79
2021/11/16 05:15:24;;;;;;;32.10;19.30;;;;;;;4.62;100.00;93979.47;5056503;28;20104;-79
2021/11/16 05:17:52;;;;;;;33.00;19.58;;;;;;;4.66;100.00;93975.66;5056177;28;20106;-79
2021/11/16 05:20:20;;;;;;;27.17;18.70;;;;;;;4.69;100.00;93977.91;5056890;28;20493;-79
2021/11/16 05:22:50;;;;;;;27.35;18.35;;;;;;;4.69;100.00;93970.28;5055935;28;20076;-79
2021/11/16 05:25:17;;;;;;;27.98;19.05;;;;;;;4.73;100.00;93975.84;5066366;28;20049;-80
2021/11/16 05:27:44;;;;;;;32.83;19.48;;;;;;;4.60;100.00;93969.47;5069747;28;20055;-80
2021/11/16 05:30:14;;;;;;;30.98;20.60;;;;;;;4.52;100.00;93965.13;5070335;28;20048;-79
2021/11/16 05:32:42;;;;;;;34.10;21.48;;;;;;;4.29;100.00;93944.53;5070705;28;20041;-82
2021/11/16 05:35:12;;;;;;;30.17;19.35;;;;;;;4.62;100.00;93993.00;5070323;28;20477;-81
2021/11/16 05:37:40;;;;;;;31.55;20.60;;;;;;;4.71;100.00;93998.13;5070204;28;20061;-80
2021/11/16 05:40:08;;;;;;;29.27;19.02;;;;;;;4.64;100.00;93975.81;5070364;28;20045;-79
2021/11/16 05:42:35;;;;;;;28.42;18.80;;;;;;;4.78;100.00;93997.34;5070171;28;20048;-79
2021/11/16 05:45:03;;;;;;;22.90;16.15;;;;;;;4.88;100.00;93999.78;5070290;28;20056;-79
2021/11/16 05:47:32;;;;;;;27.27;17.10;;;;;;;4.90;100.00;93994.50;5069938;28;20049;-80
2021/11/16 05:49:58;;;;;;;27.23;16.08;;;;;;;4.95;100.00;94000.75;5070269;28;20057;-79
2021/11/16 05:52:25;;;;;;;30.85;18.48;;;;;;;4.91;100.00;93986.72;5070033;28;20049;-80
2021/11/16 05:54:54;;;;;;;27.98;16.80;;;;;;;5.06;100.00;93997.09;5070132;28;20049;-80
2021/11/16 05:57:21;;;;;;;23.40;16.25;;;;;;;5.08;100.00;94005.41;5069912;28;20499;-79
2021/11/16 05:59:47;;;;;;;24.55;15.15;;;;;;;4.90;100.00;93977.50;5070117;28;20047;-80
2021/11/16 06:02:14;;;;;;;23.30;14.80;;;;;;;5.16;100.00;94008.91;5069782;28;20489;-80
2021/11/16 06:04:44;;;;;;;24.83;15.75;;;;;;;5.20;100.00;94013.53;5069794;28;20139;-80
2021/11/16 06:07:13;;;;;;;25.15;16.13;;;;;;;5.16;100.00;94008.91;5070554;28;20083;-80
2021/11/16 06:09:41;;;;;;;24.38;15.82;;;;;;;5.29;100.00;94021.19;5070477;28;20052;-80
2021/11/16 06:12:08;;;;;;;26.20;16.67;;;;;;;5.33;100.00;94020.72;5070061;28;20496;-79
2021/11/16 06:14:35;;;;;;;30.08;17.23;;;;;;;5.38;100.00;94017.72;5070044;28;20422;-80
2021/11/16 06:17:02;;;;;;;26.50;16.83;;;;;;;5.36;100.00;94017.06;5070053;28;20057;-80
2021/11/16 06:19:34;;;;;;;27.00;16.52;;;;;;;5.46;100.00;94030.44;5069880;28;20113;-80
2021/11/16 06:22:04;;;;;;;22.83;14.52;;;;;;;5.49;100.00;94024.25;5070418;28;20048;-80
2021/11/16 06:24:31;;;;;;;24.25;14.50;;;;;;;5.55;100.00;94031.25;5069832;28;20048;-80
2021/11/16 06:26:58;;;;;;;23.08;13.50;;;;;;;5.39;100.00;94009.13;5070271;28;20052;-80
2021/11/16 06:29:25;;;;;;;20.25;14.00;;;;;;;5.47;100.00;94014.19;5070091;28;20210;-80
2021/11/16 06:31:51;;;;;;;25.00;14.73;;;;;;;5.47;100.00;93998.13;5070130;28;20052;-80
2021/11/16 06:34:18;;;;;;;27.52;17.30;;;;;;;5.69;100.00;94021.41;5070009;28;20062;-80
2021/11/16 06:36:47;;;;;;;25.75;16.58;;;;;;;5.70;100.00;94017.91;5070431;28;20055;-80
2021/11/16 06:39:18;;;;;;;31.50;16.83;;;;;;;5.82;100.00;94026.81;5070114;28;20056;-80
2021/11/16 06:41:47;;;;;;;27.15;17.10;;;;;;;5.95;100.00;94025.53;5070371;28;20053;-80
2021/11/16 06:44:16;;;;;;;27.75;17.17;;;;;;;5.84;100.00;93999.38;5069388;28;20049;-80
2021/11/16 06:46:43;;;;;;;24.80;15.85;;;;;;;5.96;100.00;94016.91;5069699;28;20524;-80
2021/11/16 06:49:11;;;;;;;22.88;15.30;;;;;;;5.62;100.00;93993.19;5069925;28;20052;-80
2021/11/16 06:51:40;;;;;;;47.60;25.73;;;;;;;5.41;100.00;94025.03;5069486;28;20098;-80
2021/11/16 06:54:09;;;;;;;84.45;42.33;;;;;;;5.17;100.00;94007.94;5069729;28;20044;-80
2021/11/16 06:56:38;;;;;;;75.50;38.78;;;;;;;5.31;100.00;94030.28;5069684;28;20048;-80
2021/11/16 06:59:06;;;;;;;40.08;23.65;;;;;;;5.33;100.00;94023.25;5070065;28;20101;-80
2021/11/16 07:01:36;;;;;;;28.33;16.85;;;;;;;5.52;100.00;94026.50;5072848;28;20127;-80
2021/11/16 07:04:09;;;;;;;34.10;20.27;;;;;;;5.84;100.00;94031.75;5073657;28;20488;-80
2021/11/16 07:06:37;;;;;;;31.70;19.00;;;;;;;6.05;100.00;94040.69;5073836;28;20064;-81
2021/11/16 07:09:06;;;;;;;28.42;17.13;;;;;;;6.21;100.00;94024.59;5073748;28;20492;-81
2021/11/16 07:11:33;;;;;;;23.85;15.68;;;;;;;6.15;100.00;94005.59;5073249;28;20053;-80
2021/11/16 07:14:04;;;;;;;22.88;14.50;;;;;;;6.44;100.00;94037.47;5073529;28;20040;-80
2021/11/16 07:16:33;;;;;;;21.60;14.30;;;;;;;6.40;100.00;94036.97;5073090;28;20110;-81
2021/11/16 07:19:02;;;;;;;25.73;15.00;;;;;;;6.59;100.00;94034.22;5073187;28;20060;-81
2021/11/16 07:21:42;;;;;;;23.65;15.15;;;;;;;6.93;100.00;94051.00;5073228;28;20066;-81
2021/11/16 07:24:12;;;;;;;23.88;15.43;;;;;;;7.04;100.00;94025.09;5072972;28;20499;-81
2021/11/16 07:26:41;;;;;;;20.55;13.38;;;;;;;7.43;99.03;94048.22;5072793;28;20040;-81
2021/11/16 07:29:13;;;;;;;28.35;16.63;;;;;;;7.25;98.83;94048.47;5073076;28;20072;-81
2021/11/16 07:31:42;;;;;;;24.60;14.75;;;;;;;6.89;99.49;94044.66;5072987;28;20140;-81
2021/11/16 07:34:15;;;;;;;26.48;16.15;;;;;;;6.52;100.00;94023.84;5072895;28;20455;-80
2021/11/16 07:36:42;;;;;;;27.85;16.52;;;;;;;6.62;100.00;94041.56;5072554;28;20385;-80
2021/11/16 07:39:08;;;;;;;23.83;15.93;;;;;;;6.54;100.00;93999.75;5073000;28;20045;-81
2021/11/16 07:41:35;;;;;;;28.77;17.55;;;;;;;6.83;100.00;94038.44;5072582;28;20048;-80
2021/11/16 07:44:13;;;;;;;27.80;17.38;;;;;;;7.02;100.00;94041.56;5072755;28;20052;-81
2021/11/16 07:46:51;;;;;;;26.23;17.08;;;;;;;7.11;100.00;94037.19;5072723;28;20138;-81
2021/11/16 07:49:18;;;;;;;27.85;15.88;;;;;;;7.30;100.00;94051.31;5072852;28;20106;-79
2021/11/16 07:51:44;;;;;;;26.38;14.90;;;;;;;7.30;100.00;94021.47;5072360;28;20041;-79
2021/11/16 07:54:11;;;;;;;28.85;16.25;;;;;;;7.58;99.48;94050.84;5072199;28;20044;-80
2021/11/16 07:56:38;;;;;;;28.67;16.23;;;;;;;7.69;98.99;94050.44;5072284;28;20052;-80
2021/11/16 07:59:06;;;;;;;20.65;12.85;;;;;;;7.89;97.85;94055.09;5051956;28;20048;-81
2021/11/16 08:01:39;;;;;;;15.77;10.57;;;;;;;7.77;95.39;94052.16;5049960;28;20071;-81
2021/11/16 08:04:17;;;;;;;15.88;10.20;;;;;;;7.91;93.47;94058.28;5052275;28;20053;-81
2021/11/16 08:06:53;;;;;;;20.58;11.13;;;;;;;8.12;96.09;94046.59;5051972;28;20052;-81
2021/11/16 08:09:27;;;;;;;19.35;11.07;;;;;;;8.18;93.71;94051.03;5051788;28;20492;-80
2021/11/16 08:12:06;;;;;;;29.75;15.77;;;;;;;8.31;96.13;94037.63;5052111;28;20048;-81
2021/11/16 08:14:35;;;;;;;24.35;13.30;;;;;;;8.40;94.43;94041.72;5052347;28;20251;-82
2021/11/16 08:17:07;;;;;;;22.15;11.65;;;;;;;7.77;93.44;93954.19;5051884;28;20045;-81
2021/11/16 08:19:37;;;;;;;28.55;12.68;;;;;;;8.52;92.83;94018.28;5051866;28;20040;-81
2021/11/16 08:22:07;;;;;;;29.52;13.70;;;;;;;8.63;91.36;94024.69;5058861;28;20045;-81
2021/11/16 08:24:36;;;;;;;18.42;11.45;;;;;;;8.85;91.97;94043.53;5054975;28;20056;-81
2021/11/16 08:27:09;;;;;;;22.13;12.05;;;;;;;8.84;91.48;94048.81;5055840;28;20045;-81
2021/11/16 08:29:39;;;;;;;17.30;10.02;;;;;;;8.76;90.29;94021.53;5051490;28;20056;-81
2021/11/16 08:32:11;;;;;;;18.95;10.32;;;;;;;9.06;89.29;94049.66;5051602;28;20045;-80
2021/11/16 08:34:39;;;;;;;16.77;9.65;;;;;;;9.09;88.72;94057.78;5051957;28;20048;-80
2021/11/16 08:37:08;;;;;;;27.00;10.90;;;;;;;9.17;88.75;94059.47;5051847;28;20041;-81
2021/11/16 08:39:37;;;;;;;21.95;12.27;;;;;;;9.28;88.37;94052.28;5051783;28;20060;-80
2021/11/16 08:42:10;;;;;;;21.00;12.65;;;;;;;9.35;87.33;94056.50;5051708;28;20041;-80
2021/11/16 08:47:35;;;;;;;20.95;11.48;;;;;;;9.12;87.04;94045.59;5051764;28;20428;-82
2021/11/16 08:50:04;;;;;;;19.63;12.13;;;;;;;9.27;87.46;94061.75;5051737;28;20053;-81
2021/11/16 08:52:32;;;;;;;20.35;12.48;;;;;;;9.16;87.18;94044.28;5051730;28;20049;-82
2021/11/16 08:55:05;;;;;;;17.42;11.00;;;;;;;9.19;87.53;94049.03;5052313;28;20499;-81
2021/11/16 08:57:35;;;;;;;18.30;10.05;;;;;;;9.02;87.55;94022.84;5051232;28;20055;-82
2021/11/16 09:00:13;;;;;;;15.43;9.55;;;;;;;9.17;86.82;94056.13;5051383;28;20393;-82
2021/11/16 09:02:42;;;;;;;19.10;10.75;;;;;;;9.10;87.76;94030.41;5052324;28;20049;-82
2021/11/16 09:05:11;;;;;;;17.73;10.32;;;;;;;9.34;87.44;94061.81;5056845;28;20136;-82
2021/11/16 09:07:46;;;;;;;18.20;9.80;;;;;;;9.18;87.01;94037.19;5053276;28;20049;-82
2021/11/16 09:10:14;;;;;;;15.57;9.20;;;;;;;9.41;86.59;94036.25;5055385;28;20052;-82
2021/11/16 09:12:46;;;;;;;15.25;8.18;;;;;;;9.52;86.30;94025.50;5057358;28;20052;-82
2021/11/16 09:15:21;;;;;;;13.25;8.48;;;;;;;9.76;85.86;94039.75;5056798;28;20040;-82
2021/11/16 09:18:08;;;;;;;19.17;11.53;;;;;;;9.96;84.53;94033.22;5056859;28;20064;-81
2021/11/16 09:20:36;;;;;;;13.55;8.10;;;;;;;10.21;82.55;94045.63;5057381;28;20286;-82
2021/11/16 09:23:03;;;;;;;11.27;7.22;;;;;;;10.12;78.51;94035.50;5056229;28;20041;-82
2021/11/16 09:25:32;;;;;;;12.95;6.78;;;;;;;10.06;79.69;94023.41;5052375;28;20629;-81
2021/11/16 09:28:10;;;;;;;18.63;9.60;;;;;;;10.34;79.35;94039.81;5050932;28;20055;-82
2021/11/16 09:30:41;;;;;;;13.43;8.68;;;;;;;10.42;77.20;94049.94;5050544;28;20049;-81
2021/11/16 09:33:12;;;;;;;13.45;7.95;;;;;;;10.23;75.56;94041.13;5049999;28;20424;-82
2021/11/16 09:35:45;;;;;;;15.77;8.93;;;;;;;10.18;76.45;94033.19;5050787;28;20110;-82
2021/11/16 09:38:12;;;;;;;17.45;9.57;;;;;;;10.32;77.09;94041.78;5050271;28;20049;-82
2021/11/16 09:40:39;;;;;;;14.45;7.65;;;;;;;10.23;76.68;94041.91;5050642;28;20053;-81
2021/11/16 09:43:10;;;;;;;26.70;13.40;;;;;;;10.11;78.19;94028.00;5050659;28;20131;-81
2021/11/16 09:45:41;;;;;;;16.33;8.73;;;;;;;10.15;78.87;94027.41;5050174;28;20132;-81
2021/11/16 09:48:11;;;;;;;12.18;7.38;;;;;;;9.97;77.87;94004.78;5050155;28;20056;-81
2021/11/16 09:50:38;;;;;;;15.23;8.55;;;;;;;10.10;78.96;94032.31;5050415;28;20052;-81
2021/11/16 09:53:14;;;;;;;13.18;7.90;;;;;;;9.87;79.23;94024.84;5050251;28;20449;-81
2021/11/16 09:55:41;;;;;;;14.20;8.30;;;;;;;9.84;79.34;94023.44;5050653;28;20060;-81
2021/11/16 09:58:19;;;;;;;20.00;9.73;;;;;;;9.81;80.76;94021.22;5050283;28;20050;-81
2021/11/16 10:00:46;;;;;;;15.10;8.75;;;;;;;9.84;80.28;94018.31;5050217;28;20059;-81
2021/11/16 10:03:18;;;;;;;14.48;8.82;;;;;;;9.66;81.23;94000.78;5049865;28;20056;-81
2021/11/16 10:05:48;;;;;;;13.48;8.40;;;;;;;9.69;81.32;93991.91;5050119;28;20496;-82
2021/11/16 10:08:18;;;;;;;17.40;9.60;;;;;;;9.90;81.00;94003.94;5050125;28;20479;-81
2021/11/16 10:10:49;;;;;;;19.77;10.80;;;;;;;9.98;82.08;94000.44;5049824;28;20554;-81
2021/11/16 10:13:18;;;;;;;15.18;8.43;;;;;;;9.65;81.62;93986.38;5050151;28;20053;-81
2021/11/16 10:15:47;;;;;;;15.48;8.35;;;;;;;9.60;82.36;93979.25;5050443;28;20057;-81
2021/11/16 10:18:18;;;;;;;14.02;8.35;;;;;;;9.67;82.82;93989.53;5050117;28;20057;-80
2021/11/16 10:20:48;;;;;;;13.68;8.43;;;;;;;9.63;82.50;93983.22;5050250;28;20045;-81
2021/11/16 10:23:17;;;;;;;13.57;8.23;;;;;;;9.41;81.68;93957.56;5049617;28;20045;-81
2021/11/16 10:25:52;;;;;;;14.98;8.30;;;;;;;9.42;82.44;93987.34;5049550;28;20059;-81
2021/11/16 10:28:19;;;;;;;14.43;7.88;;;;;;;9.46;82.79;93980.09;5049640;28;20473;-81
2021/11/16 10:30:47;;;;;;;13.65;8.20;;;;;;;9.48;83.83;93973.00;5049700;28;20052;-81
2021/11/16 10:33:19;;;;;;;13.75;7.47;;;;;;;9.62;82.95;93977.28;5049117;28;20045;-81
2021/11/16 10:35:49;;;;;;;15.15;7.97;;;;;;;9.63;83.10;93958.34;5048684;28;20041;-81
2021/11/16 10:38:19;;;;;;;13.13;8.20;;;;;;;9.80;82.11;93965.75;5049298;28;20558;-81
2021/11/16 10:40:46;;;;;;;13.88;7.97;;;;;;;9.82;81.43;93963.03;5049491;28;20049;-81
2021/11/16 10:43:13;;;;;;;15.65;8.95;;;;;;;9.75;81.18;93976.59;5049075;28;20051;-81
2021/11/16 10:45:44;;;;;;;16.48;9.00;;;;;;;9.49;81.80;93936.91;5049073;28;20078;-81
2021/11/16 10:48:13;;;;;;;14.18;7.85;;;;;;;9.56;81.91;93936.97;5049164;28;20427;-81
2021/11/16 10:50:45;;;;;;;14.95;7.85;;;;;;;9.69;81.65;93954.25;5049188;28;20049;-82
2021/11/16 10:53:18;;;;;;;16.55;8.63;;;;;;;9.28;81.34;93901.81;5049459;28;20049;-81
2021/11/16 10:55:47;;;;;;;20.58;9.70;;;;;;;9.56;82.73;93944.66;5049012;28;20045;-80
2021/11/16 10:58:15;;;;;;;16.20;8.77;;;;;;;9.68;82.42;93944.94;5049074;28;20067;-81
2021/11/16 11:00:48;;;;;;;14.90;8.32;;;;;;;9.59;81.76;93943.50;5048919;28;20049;-81
2021/11/16 11:03:24;;;;;;;14.45;8.73;;;;;;;9.65;82.32;93940.19;5049084;28;20051;-81
2021/11/16 11:05:56;;;;;;;13.23;7.35;;;;;;;9.45;82.14;93909.25;5049149;28;20049;-80
2021/11/16 11:08:37;;;;;;;12.80;7.75;;;;;;;9.74;81.74;93933.16;5049256;28;20045;-81
2021/11/16 11:11:09;;;;;;;11.73;7.90;;;;;;;9.62;81.26;93900.31;5048872;28;20052;-81
2021/11/16 11:13:37;;;;;;;16.45;9.50;;;;;;;9.61;81.96;93916.69;5049181;28;20049;-81
2021/11/16 11:16:04;;;;;;;19.92;10.10;;;;;;;9.76;81.52;93929.44;5049143;28;20056;-81
2021/11/16 11:18:33;;;;;;;16.88;9.40;;;;;;;9.61;81.28;93890.25;5049042;28;20053;-83
2021/11/16 11:21:03;;;;;;;16.83;9.13;;;;;;;9.57;80.42;93909.53;5048651;28;20055;-81
2021/11/16 11:23:33;;;;;;;13.35;8.02;;;;;;;9.74;81.43;93917.75;5049074;28;20053;-81
2021/11/16 11:26:29;;;;;;;11.50;7.03;;;;;;;9.75;80.56;93930.41;5048875;28;20045;-81
2021/11/16 11:29:14;;;;;;;14.10;9.02;;;;;;;9.85;81.21;93926.72;5049276;28;20045;-80
2021/11/16 11:31:41;;;;;;;13.15;7.85;;;;;;;9.75;80.67;93922.72;5048870;28;20087;-81
2021/11/16 11:34:08;;;;;;;13.50;7.57;;;;;;;9.78;80.81;93915.63;5049219;28;20048;-81
2021/11/16 11:36:36;;;;;;;13.68;8.27;;;;;;;9.83;80.27;93923.56;5049321;28;20393;-82
2021/11/16 11:39:16;;;;;;;13.35;7.72;;;;;;;9.69;80.63;93899.56;5048875;28;20061;-81
2021/11/16 11:41:51;;;;;;;13.27;7.38;;;;;;;9.56;80.65;93882.31;5027313;28;20053;-81